sensor_id;sensor_type;location;lat;lon;timestamp;pressure;altitude;pressure_sealevel;temperature;humidity
81509;BME280;70930;52.412;13.554;2024-02-21T00:01:05;101612.88;;;7.57;87.28
81509;BME280;70930;52.412;13.554;2024-02-21T00:03:30;101611.22;;;7.56;87.14
81509;BME280;70930;52.412;13.554;2024-02-21T00:05:56;101602.31;;;7.57;87.30
81509;BME280;70930;52.412;13.554;2024-02-21T00:08:21;101609.81;;;7.52;87.53
81509;BME280;70930;52.412;13.554;2024-02-21T00:10:46;101599.81;;;7.56;86.96
81509;BME280;70930;52.412;13.554;2024-02-21T00:13:12;101604.66;;;7.51;87.38
81509;BME280;70930;52.412;13.554;2024-02-21T00:15:37;101600.38;;;7.59;86.93
81509;BME280;70930;52.412;13.554;2024-02-21T00:18:03;101598.13;;;7.55;87.35
81509;BME280;70930;52.412;13.554;2024-02-21T00:20:28;101598.91;;;7.36;87.98
81509;BME280;70930;52.412;13.554;2024-02-21T00:22:54;101596.28;;;7.46;87.95
81509;BME280;70930;52.412;13.554;2024-02-21T00:25:20;101592.13;;;7.43;87.66
81509;BME280;70930;52.412;13.554;2024-02-21T00:27:45;101583.22;;;7.54;87.07
81509;BME280;70930;52.412;13.554;2024-02-21T00:30:11;101583.63;;;7.49;87.86
81509;BME280;70930;52.412;13.554;2024-02-21T00:32:36;101590.06;;;7.47;87.53
81509;BME280;70930;52.412;13.554;2024-02-21T00:35:02;101582.13;;;7.56;87.90
81509;BME280;70930;52.412;13.554;2024-02-21T00:37:27;101577.25;;;7.52;87.45
81509;BME280;70930;52.412;13.554;2024-02-21T00:39:53;101578.50;;;7.48;87.93
81509;BME280;70930;52.412;13.554;2024-02-21T00:42:19;101586.25;;;7.40;87.88
81509;BME280;70930;52.412;13.554;2024-02-21T00:44:44;101582.66;;;7.50;87.26
81509;BME280;70930;52.412;13.554;2024-02-21T00:47:10;101574.03;;;7.48;87.12
81509;BME280;70930;52.412;13.554;2024-02-21T00:49:35;101572.69;;;7.63;86.76
81509;BME280;70930;52.412;13.554;2024-02-21T00:52:00;101572.22;;;7.49;88.46
81509;BME280;70930;52.412;13.554;2024-02-21T00:54:26;101569.84;;;7.46;87.30
81509;BME280;70930;52.412;13.554;2024-02-21T00:56:51;101564.06;;;7.61;86.98
81509;BME280;70930;52.412;13.554;2024-02-21T00:59:16;101556.28;;;7.60;87.39
81509;BME280;70930;52.412;13.554;2024-02-21T01:01:42;101555.84;;;7.55;87.71
81509;BME280;70930;52.412;13.554;2024-02-21T01:04:09;101564.72;;;7.54;87.33
81509;BME280;70930;52.412;13.554;2024-02-21T01:06:34;101560.41;;;7.53;87.54
81509;BME280;70930;52.412;13.554;2024-02-21T01:08:59;101552.91;;;7.48;87.60
81509;BME280;70930;52.412;13.554;2024-02-21T01:11:25;101549.84;;;7.53;86.97
81509;BME280;70930;52.412;13.554;2024-02-21T01:13:50;101553.75;;;7.49;87.68
81509;BME280;70930;52.412;13.554;2024-02-21T01:16:15;101542.50;;;7.56;87.41
81509;BME280;70930;52.412;13.554;2024-02-21T01:18:41;101539.44;;;7.61;86.49
81509;BME280;70930;52.412;13.554;2024-02-21T01:21:07;101554.41;;;7.41;87.80
81509;BME280;70930;52.412;13.554;2024-02-21T01:23:36;101543.06;;;7.60;86.49
81509;BME280;70930;52.412;13.554;2024-02-21T01:26:02;101541.09;;;7.62;86.58
81509;BME280;70930;52.412;13.554;2024-02-21T01:28:27;101547.06;;;7.54;86.02
81509;BME280;70930;52.412;13.554;2024-02-21T01:30:53;101545.97;;;7.57;86.25
81509;BME280;70930;52.412;13.554;2024-02-21T01:33:18;101541.78;;;7.54;86.93
81509;BME280;70930;52.412;13.554;2024-02-21T01:35:44;101538.75;;;7.59;86.01
81509;BME280;70930;52.412;13.554;2024-02-21T01:38:09;101526.09;;;7.62;85.63
81509;BME280;70930;52.412;13.554;2024-02-21T01:40:35;101529.41;;;7.55;86.24
81509;BME280;70930;52.412;13.554;2024-02-21T01:43:02;101522.63;;;7.72;85.66
81509;BME280;70930;52.412;13.554;2024-02-21T01:45:27;101525.38;;;7.60;85.65
81509;BME280;70930;52.412;13.554;2024-02-21T01:47:53;101525.50;;;7.49;86.13
81509;BME280;70930;52.412;13.554;2024-02-21T01:50:18;101526.31;;;7.50;86.71
81509;BME280;70930;52.412;13.554;2024-02-21T01:52:46;101521.75;;;7.61;86.44
81509;BME280;70930;52.412;13.554;2024-02-21T01:55:13;101521.91;;;7.70;85.17
81509;BME280;70930;52.412;13.554;2024-02-21T01:57:40;101520.09;;;7.70;85.57
81509;BME280;70930;52.412;13.554;2024-02-21T02:00:07;101514.13;;;7.68;85.43
81509;BME280;70930;52.412;13.554;2024-02-21T02:02:32;101510.50;;;7.69;85.54
81509;BME280;70930;52.412;13.554;2024-02-21T02:04:58;101500.06;;;7.68;85.10
81509;BME280;70930;52.412;13.554;2024-02-21T02:07:24;101505.06;;;7.61;85.45
81509;BME280;70930;52.412;13.554;2024-02-21T02:09:50;101513.84;;;7.71;85.61
81509;BME280;70930;52.412;13.554;2024-02-21T02:12:15;101490.75;;;7.63;85.57
81509;BME280;70930;52.412;13.554;2024-02-21T02:14:40;101495.09;;;7.74;84.90
81509;BME280;70930;52.412;13.554;2024-02-21T02:17:06;101491.75;;;7.62;84.53
81509;BME280;70930;52.412;13.554;2024-02-21T02:19:31;101484.50;;;7.65;85.50
81509;BME280;70930;52.412;13.554;2024-02-21T02:22:05;101486.16;;;7.66;84.86
81509;BME280;70930;52.412;13.554;2024-02-21T02:24:31;101478.75;;;7.50;86.32
81509;BME280;70930;52.412;13.554;2024-02-21T02:26:57;101485.88;;;7.59;86.23
81509;BME280;70930;52.412;13.554;2024-02-21T02:29:22;101476.56;;;7.55;86.94
81509;BME280;70930;52.412;13.554;2024-02-21T02:31:49;101480.03;;;7.55;87.45
81509;BME280;70930;52.412;13.554;2024-02-21T02:34:14;101472.22;;;7.44;88.68
81509;BME280;70930;52.412;13.554;2024-02-21T02:36:40;101484.84;;;7.31;91.05
81509;BME280;70930;52.412;13.554;2024-02-21T02:39:06;101474.00;;;7.34;91.73
81509;BME280;70930;52.412;13.554;2024-02-21T02:41:35;101478.72;;;7.30;91.89
81509;BME280;70930;52.412;13.554;2024-02-21T02:44:00;101463.59;;;7.32;92.72
81509;BME280;70930;52.412;13.554;2024-02-21T02:46:25;101476.75;;;7.13;93.57
81509;BME280;70930;52.412;13.554;2024-02-21T02:48:51;101482.19;;;7.11;94.17
81509;BME280;70930;52.412;13.554;2024-02-21T02:51:16;101474.84;;;7.25;94.01
81509;BME280;70930;52.412;13.554;2024-02-21T02:53:42;101476.34;;;7.18;93.91
81509;BME280;70930;52.412;13.554;2024-02-21T02:56:07;101467.28;;;7.10;96.04
81509;BME280;70930;52.412;13.554;2024-02-21T02:58:32;101478.00;;;7.09;96.69
81509;BME280;70930;52.412;13.554;2024-02-21T03:00:58;101470.94;;;7.19;96.56
81509;BME280;70930;52.412;13.554;2024-02-21T03:03:23;101463.00;;;7.19;96.39
81509;BME280;70930;52.412;13.554;2024-02-21T03:05:48;101461.06;;;7.21;95.76
81509;BME280;70930;52.412;13.554;2024-02-21T03:08:14;101454.22;;;7.19;96.54
81509;BME280;70930;52.412;13.554;2024-02-21T03:10:39;101452.09;;;7.03;96.74
81509;BME280;70930;52.412;13.554;2024-02-21T03:13:06;101446.72;;;7.04;97.51
81509;BME280;70930;52.412;13.554;2024-02-21T03:15:31;101446.97;;;7.11;97.07
81509;BME280;70930;52.412;13.554;2024-02-21T03:17:57;101437.56;;;7.18;96.62
81509;BME280;70930;52.412;13.554;2024-02-21T03:20:22;101441.59;;;7.12;97.28
81509;BME280;70930;52.412;13.554;2024-02-21T03:22:47;101439.03;;;7.01;97.02
81509;BME280;70930;52.412;13.554;2024-02-21T03:25:13;101432.53;;;7.05;97.51
81509;BME280;70930;52.412;13.554;2024-02-21T03:27:40;101429.06;;;7.05;97.58
81509;BME280;70930;52.412;13.554;2024-02-21T03:30:05;101427.50;;;7.02;97.52
81509;BME280;70930;52.412;13.554;2024-02-21T03:32:31;101430.66;;;6.86;99.61
81509;BME280;70930;52.412;13.554;2024-02-21T03:34:56;101424.13;;;6.91;99.57
81509;BME280;70930;52.412;13.554;2024-02-21T03:37:22;101428.72;;;6.88;99.87
81509;BME280;70930;52.412;13.554;2024-02-21T03:39:47;101427.09;;;7.07;99.18
81509;BME280;70930;52.412;13.554;2024-02-21T03:42:12;101426.53;;;7.03;99.08
81509;BME280;70930;52.412;13.554;2024-02-21T03:44:38;101427.41;;;7.13;98.14
81509;BME280;70930;52.412;13.554;2024-02-21T03:47:04;101423.34;;;7.09;98.76
81509;BME280;70930;52.412;13.554;2024-02-21T03:49:29;101431.66;;;6.95;99.82
81509;BME280;70930;52.412;13.554;2024-02-21T03:51:55;101431.97;;;7.02;99.72
81509;BME280;70930;52.412;13.554;2024-02-21T03:54:20;101423.31;;;6.90;100.00
81509;BME280;70930;52.412;13.554;2024-02-21T03:56:46;101423.88;;;6.84;100.00
81509;BME280;70930;52.412;13.554;2024-02-21T03:59:15;101419.41;;;6.84;100.00
81509;BME280;70930;52.412;13.554;2024-02-21T04:01:40;101408.56;;;6.87;100.00
81509;BME280;70930;52.412;13.554;2024-02-21T04:04:06;101409.13;;;6.91;100.00
81509;BME280;70930;52.412;13.554;2024-02-21T04:06:32;101402.19;;;6.90;100.00
81509;BME280;70930;52.412;13.554;2024-02-21T04:08:57;101393.44;;;6.80;100.00
81509;BME280;70930;52.412;13.554;2024-02-21T04:11:22;101393.53;;;6.78;100.00
81509;BME280;70930;52.412;13.554;2024-02-21T04:13:48;101396.91;;;6.80;100.00
81509;BME280;70930;52.412;13.554;2024-02-21T04:16:15;101397.69;;;6.71;100.00
81509;BME280;70930;52.412;13.554;2024-02-21T04:18:41;101390.88;;;6.69;100.00
81509;BME280;70930;52.412;13.554;2024-02-21T04:21:06;101388.00;;;6.81;100.00
81509;BME280;70930;52.412;13.554;2024-02-21T04:23:32;101377.22;;;6.63;100.00
81509;BME280;70930;52.412;13.554;2024-02-21T04:25:57;101377.13;;;6.75;100.00
81509;BME280;70930;52.412;13.554;2024-02-21T04:28:23;101371.31;;;6.81;100.00
81509;BME280;70930;52.412;13.554;2024-02-21T04:30:48;101368.28;;;6.85;100.00
81509;BME280;70930;52.412;13.554;2024-02-21T04:33:13;101353.38;;;6.75;100.00
81509;BME280;70930;52.412;13.554;2024-02-21T04:35:39;101352.59;;;6.84;100.00
81509;BME280;70930;52.412;13.554;2024-02-21T04:38:04;101347.00;;;6.77;100.00
81509;BME280;70930;52.412;13.554;2024-02-21T04:40:30;101338.13;;;6.88;100.00
81509;BME280;70930;52.412;13.554;2024-02-21T04:42:56;101334.63;;;6.68;100.00
81509;BME280;70930;52.412;13.554;2024-02-21T04:45:21;101335.88;;;6.74;100.00
81509;BME280;70930;52.412;13.554;2024-02-21T04:47:47;101331.28;;;6.76;100.00
81509;BME280;70930;52.412;13.554;2024-02-21T04:50:12;101318.09;;;6.66;100.00
81509;BME280;70930;52.412;13.554;2024-02-21T04:52:38;101303.91;;;6.57;100.00
81509;BME280;70930;52.412;13.554;2024-02-21T04:55:03;101304.22;;;6.74;100.00
81509;BME280;70930;52.412;13.554;2024-02-21T04:57:29;101304.06;;;6.66;100.00
81509;BME280;70930;52.412;13.554;2024-02-21T04:59:54;101302.97;;;6.78;100.00
81509;BME280;70930;52.412;13.554;2024-02-21T05:02:19;101298.94;;;6.74;100.00
81509;BME280;70930;52.412;13.554;2024-02-21T05:04:47;101300.13;;;6.60;100.00
81509;BME280;70930;52.412;13.554;2024-02-21T05:07:13;101292.25;;;6.79;100.00
81509;BME280;70930;52.412;13.554;2024-02-21T05:09:38;101297.28;;;6.73;100.00
81509;BME280;70930;52.412;13.554;2024-02-21T05:12:04;101292.78;;;6.63;100.00
81509;BME280;70930;52.412;13.554;2024-02-21T05:14:29;101293.91;;;6.71;100.00
81509;BME280;70930;52.412;13.554;2024-02-21T05:16:55;101286.72;;;6.82;100.00
81509;BME280;70930;52.412;13.554;2024-02-21T05:19:20;101294.63;;;6.73;100.00
81509;BME280;70930;52.412;13.554;2024-02-21T05:21:46;101303.13;;;6.86;100.00
81509;BME280;70930;52.412;13.554;2024-02-21T05:24:11;101289.91;;;6.86;100.00
81509;BME280;70930;52.412;13.554;2024-02-21T05:26:37;101298.22;;;6.72;100.00
81509;BME280;70930;52.412;13.554;2024-02-21T05:29:02;101299.22;;;6.80;100.00
81509;BME280;70930;52.412;13.554;2024-02-21T05:34:20;101292.13;;;6.81;100.00
81509;BME280;70930;52.412;13.554;2024-02-21T05:36:45;101291.69;;;6.66;100.00
81509;BME280;70930;52.412;13.554;2024-02-21T05:39:11;101291.16;;;6.72;100.00
81509;BME280;70930;52.412;13.554;2024-02-21T05:41:36;101297.38;;;6.71;100.00
81509;BME280;70930;52.412;13.554;2024-02-21T05:44:02;101285.47;;;6.77;100.00
81509;BME280;70930;52.412;13.554;2024-02-21T05:46:27;101298.69;;;6.96;100.00
81509;BME280;70930;52.412;13.554;2024-02-21T05:48:53;101291.88;;;6.84;100.00
81509;BME280;70930;52.412;13.554;2024-02-21T05:51:19;101302.00;;;6.88;100.00
81509;BME280;70930;52.412;13.554;2024-02-21T05:53:44;101300.50;;;6.96;100.00
81509;BME280;70930;52.412;13.554;2024-02-21T05:56:13;101298.13;;;6.93;100.00
81509;BME280;70930;52.412;13.554;2024-02-21T05:58:39;101294.50;;;6.84;100.00
81509;BME280;70930;52.412;13.554;2024-02-21T06:01:05;101298.13;;;6.93;100.00
81509;BME280;70930;52.412;13.554;2024-02-21T06:03:32;101288.53;;;6.82;100.00
81509;BME280;70930;52.412;13.554;2024-02-21T06:05:59;101289.75;;;6.78;100.00
81509;BME280;70930;52.412;13.554;2024-02-21T06:08:25;101281.00;;;6.87;100.00
81509;BME280;70930;52.412;13.554;2024-02-21T06:10:50;101283.66;;;6.87;100.00
81509;BME280;70930;52.412;13.554;2024-02-21T06:13:25;101291.00;;;6.83;100.00
81509;BME280;70930;52.412;13.554;2024-02-21T06:15:50;101283.81;;;6.85;100.00
81509;BME280;70930;52.412;13.554;2024-02-21T06:18:19;101283.50;;;6.79;100.00
81509;BME280;70930;52.412;13.554;2024-02-21T06:20:45;101281.56;;;6.71;100.00
81509;BME280;70930;52.412;13.554;2024-02-21T06:23:15;101277.97;;;6.82;100.00
81509;BME280;70930;52.412;13.554;2024-02-21T06:25:42;101278.50;;;6.76;100.00
81509;BME280;70930;52.412;13.554;2024-02-21T06:28:08;101275.31;;;6.72;100.00
81509;BME280;70930;52.412;13.554;2024-02-21T06:30:33;101280.91;;;6.88;100.00
81509;BME280;70930;52.412;13.554;2024-02-21T06:32:58;101273.81;;;6.89;100.00
81509;BME280;70930;52.412;13.554;2024-02-21T06:35:25;101262.81;;;6.74;100.00
81509;BME280;70930;52.412;13.554;2024-02-21T06:37:53;101261.81;;;6.75;100.00
81509;BME280;70930;52.412;13.554;2024-02-21T06:40:21;101263.94;;;6.81;100.00
81509;BME280;70930;52.412;13.554;2024-02-21T06:42:46;101268.63;;;6.87;100.00
81509;BME280;70930;52.412;13.554;2024-02-21T06:45:12;101262.94;;;6.82;100.00
81509;BME280;70930;52.412;13.554;2024-02-21T06:47:37;101277.28;;;6.80;100.00
81509;BME280;70930;52.412;13.554;2024-02-21T06:50:03;101272.41;;;6.85;100.00
81509;BME280;70930;52.412;13.554;2024-02-21T06:52:28;101261.97;;;6.83;100.00
81509;BME280;70930;52.412;13.554;2024-02-21T06:54:53;101268.13;;;6.84;100.00
81509;BME280;70930;52.412;13.554;2024-02-21T06:57:19;101257.25;;;6.87;100.00
81509;BME280;70930;52.412;13.554;2024-02-21T06:59:44;101259.78;;;6.88;100.00
81509;BME280;70930;52.412;13.554;2024-02-21T07:02:09;101265.88;;;6.89;100.00
81509;BME280;70930;52.412;13.554;2024-02-21T07:04:35;101267.97;;;6.85;100.00
81509;BME280;70930;52.412;13.554;2024-02-21T07:07:00;101271.28;;;6.87;100.00
81509;BME280;70930;52.412;13.554;2024-02-21T07:09:26;101276.28;;;6.91;100.00
81509;BME280;70930;52.412;13.554;2024-02-21T07:11:51;101269.75;;;6.95;100.00
81509;BME280;70930;52.412;13.554;2024-02-21T07:14:18;101278.09;;;6.90;100.00
81509;BME280;70930;52.412;13.554;2024-02-21T07:16:43;101277.28;;;6.89;100.00
81509;BME280;70930;52.412;13.554;2024-02-21T07:19:09;101271.03;;;7.00;100.00
81509;BME280;70930;52.412;13.554;2024-02-21T07:21:34;101279.91;;;6.99;100.00
81509;BME280;70930;52.412;13.554;2024-02-21T07:24:00;101278.81;;;7.02;100.00
81509;BME280;70930;52.412;13.554;2024-02-21T07:26:25;101282.97;;;6.95;100.00
81509;BME280;70930;52.412;13.554;2024-02-21T07:28:50;101279.34;;;7.05;100.00
81509;BME280;70930;52.412;13.554;2024-02-21T07:31:16;101290.47;;;7.09;99.85
81509;BME280;70930;52.412;13.554;2024-02-21T07:33:41;101280.06;;;6.88;100.00
81509;BME280;70930;52.412;13.554;2024-02-21T07:36:07;101281.03;;;7.06;100.00
81509;BME280;70930;52.412;13.554;2024-02-21T07:38:36;101277.81;;;7.03;99.59
81509;BME280;70930;52.412;13.554;2024-02-21T07:41:02;101269.78;;;7.04;99.38
81509;BME280;70930;52.412;13.554;2024-02-21T07:43:28;101281.16;;;7.05;99.97
81509;BME280;70930;52.412;13.554;2024-02-21T07:45:53;101271.59;;;7.04;99.56
81509;BME280;70930;52.412;13.554;2024-02-21T07:48:18;101274.47;;;7.10;98.33
81509;BME280;70930;52.412;13.554;2024-02-21T07:50:44;101273.38;;;7.13;98.14
81509;BME280;70930;52.412;13.554;2024-02-21T07:53:09;101273.22;;;7.14;98.50
81509;BME280;70930;52.412;13.554;2024-02-21T07:55:35;101272.41;;;7.24;98.46
81509;BME280;70930;52.412;13.554;2024-02-21T07:58:00;101273.50;;;7.31;97.27
81509;BME280;70930;52.412;13.554;2024-02-21T08:00:26;101272.66;;;7.30;97.52
81509;BME280;70930;52.412;13.554;2024-02-21T08:02:51;101266.81;;;7.27;97.78
81509;BME280;70930;52.412;13.554;2024-02-21T08:05:17;101268.75;;;7.34;97.02
81509;BME280;70930;52.412;13.554;2024-02-21T08:07:42;101262.53;;;7.26;97.20
81509;BME280;70930;52.412;13.554;2024-02-21T08:10:08;101264.34;;;7.35;97.00
81509;BME280;70930;52.412;13.554;2024-02-21T08:12:33;101259.31;;;7.32;96.95
81509;BME280;70930;52.412;13.554;2024-02-21T08:15:00;101244.03;;;7.35;96.69
81509;BME280;70930;52.412;13.554;2024-02-21T08:17:25;101249.72;;;7.31;96.04
81509;BME280;70930;52.412;13.554;2024-02-21T08:19:50;101246.69;;;7.35;96.68
81509;BME280;70930;52.412;13.554;2024-02-21T08:22:16;101245.81;;;7.45;96.40
81509;BME280;70930;52.412;13.554;2024-02-21T08:24:41;101250.81;;;7.48;95.56
81509;BME280;70930;52.412;13.554;2024-02-21T08:27:07;101239.38;;;7.57;94.99
81509;BME280;70930;52.412;13.554;2024-02-21T08:29:32;101244.38;;;7.60;94.71
81509;BME280;70930;52.412;13.554;2024-02-21T08:31:58;101245.09;;;7.52;94.42
81509;BME280;70930;52.412;13.554;2024-02-21T08:34:23;101240.47;;;7.64;94.32
81509;BME280;70930;52.412;13.554;2024-02-21T08:36:48;101237.28;;;7.60;94.01
81509;BME280;70930;52.412;13.554;2024-02-21T08:39:14;101235.88;;;7.66;93.71
81509;BME280;70930;52.412;13.554;2024-02-21T08:41:42;101240.38;;;7.56;94.25
81509;BME280;70930;52.412;13.554;2024-02-21T08:44:07;101242.41;;;7.72;93.23
81509;BME280;70930;52.412;13.554;2024-02-21T08:46:32;101243.06;;;7.74;92.78
81509;BME280;70930;52.412;13.554;2024-02-21T08:48:58;101241.09;;;7.85;93.25
81509;BME280;70930;52.412;13.554;2024-02-21T08:51:23;101245.25;;;7.88;92.81
81509;BME280;70930;52.412;13.554;2024-02-21T08:53:49;101235.50;;;7.98;91.61
81509;BME280;70930;52.412;13.554;2024-02-21T08:56:15;101241.25;;;8.11;91.92
81509;BME280;70930;52.412;13.554;2024-02-21T08:58:41;101253.28;;;8.06;91.63
81509;BME280;70930;52.412;13.554;2024-02-21T09:01:07;101242.53;;;8.07;91.38
81509;BME280;70930;52.412;13.554;2024-02-21T09:03:36;101244.53;;;8.23;90.12
81509;BME280;70930;52.412;13.554;2024-02-21T09:06:01;101243.00;;;8.21;90.28
81509;BME280;70930;52.412;13.554;2024-02-21T09:08:27;101244.25;;;8.26;89.65
81509;BME280;70930;52.412;13.554;2024-02-21T09:10:53;101244.31;;;8.44;90.32
81509;BME280;70930;52.412;13.554;2024-02-21T09:13:18;101250.63;;;8.33;90.08
81509;BME280;70930;52.412;13.554;2024-02-21T09:15:43;101238.63;;;8.39;89.94
81509;BME280;70930;52.412;13.554;2024-02-21T09:18:09;101239.16;;;8.60;88.94
81509;BME280;70930;52.412;13.554;2024-02-21T09:20:34;101240.25;;;8.85;89.56
81509;BME280;70930;52.412;13.554;2024-02-21T09:22:59;101233.13;;;8.86;87.32
81509;BME280;70930;52.412;13.554;2024-02-21T09:25:25;101244.66;;;8.77;87.72
81509;BME280;70930;52.412;13.554;2024-02-21T09:27:53;101236.25;;;8.81;87.46
81509;BME280;70930;52.412;13.554;2024-02-21T09:30:19;101226.94;;;8.77;87.81
81509;BME280;70930;52.412;13.554;2024-02-21T09:32:45;101227.69;;;8.70;87.52
81509;BME280;70930;52.412;13.554;2024-02-21T09:35:10;101233.72;;;8.80;87.18
81509;BME280;70930;52.412;13.554;2024-02-21T09:37:38;101231.41;;;8.77;87.28
81509;BME280;70930;52.412;13.554;2024-02-21T09:40:03;101224.28;;;8.95;86.79
81509;BME280;70930;52.412;13.554;2024-02-21T09:42:40;101220.91;;;8.85;87.80
81509;BME280;70930;52.412;13.554;2024-02-21T09:45:26;101222.63;;;8.94;86.59
81509;BME280;70930;52.412;13.554;2024-02-21T09:50:27;101197.81;;;9.21;86.25
81509;BME280;70930;52.412;13.554;2024-02-21T09:52:54;101212.91;;;9.21;84.63
81509;BME280;70930;52.412;13.554;2024-02-21T09:55:20;101213.66;;;9.13;86.06
81509;BME280;70930;52.412;13.554;2024-02-21T09:57:46;101215.31;;;9.14;85.16
81509;BME280;70930;52.412;13.554;2024-02-21T10:00:12;101207.44;;;9.22;85.64
81509;BME280;70930;52.412;13.554;2024-02-21T10:02:47;101224.72;;;9.08;85.78
81509;BME280;70930;52.412;13.554;2024-02-21T10:05:13;101229.56;;;9.13;85.14
81509;BME280;70930;52.412;13.554;2024-02-21T10:07:38;101220.63;;;9.14;84.18
81509;BME280;70930;52.412;13.554;2024-02-21T10:10:05;101218.66;;;9.16;84.66
81509;BME280;70930;52.412;13.554;2024-02-21T10:12:31;101218.97;;;9.13;84.29
81509;BME280;70930;52.412;13.554;2024-02-21T10:15:05;101218.56;;;9.26;84.71
81509;BME280;70930;52.412;13.554;2024-02-21T10:17:32;101214.19;;;9.17;85.27
81509;BME280;70930;52.412;13.554;2024-02-21T10:20:07;101208.41;;;9.21;84.61
81509;BME280;70930;52.412;13.554;2024-02-21T10:22:33;101206.66;;;9.30;83.84
81509;BME280;70930;52.412;13.554;2024-02-21T10:25:10;101208.69;;;9.36;84.91
81509;BME280;70930;52.412;13.554;2024-02-21T10:27:36;101209.47;;;9.28;84.06
81509;BME280;70930;52.412;13.554;2024-02-21T10:30:02;101210.19;;;9.39;84.02
81509;BME280;70930;52.412;13.554;2024-02-21T10:32:27;101203.75;;;9.41;82.94
81509;BME280;70930;52.412;13.554;2024-02-21T10:35:03;101222.31;;;9.41;83.68
81509;BME280;70930;52.412;13.554;2024-02-21T10:37:36;101212.69;;;9.40;83.82
81509;BME280;70930;52.412;13.554;2024-02-21T10:40:01;101209.25;;;9.48;84.21
81509;BME280;70930;52.412;13.554;2024-02-21T10:42:31;101204.47;;;9.51;83.56
81509;BME280;70930;52.412;13.554;2024-02-21T10:45:00;101210.84;;;9.67;82.89
81509;BME280;70930;52.412;13.554;2024-02-21T10:47:31;101200.59;;;9.72;82.71
81509;BME280;70930;52.412;13.554;2024-02-21T10:50:03;101212.09;;;9.80;82.33
81509;BME280;70930;52.412;13.554;2024-02-21T10:55:09;101206.25;;;9.77;82.11
81509;BME280;70930;52.412;13.554;2024-02-21T10:57:37;101196.69;;;9.84;82.07
81509;BME280;70930;52.412;13.554;2024-02-21T11:00:04;101199.16;;;9.86;81.86
81509;BME280;70930;52.412;13.554;2024-02-21T11:02:33;101203.13;;;9.81;82.15
81509;BME280;70930;52.412;13.554;2024-02-21T11:05:01;101193.81;;;9.77;82.74
81509;BME280;70930;52.412;13.554;2024-02-21T11:07:29;101192.41;;;9.91;81.56
81509;BME280;70930;52.412;13.554;2024-02-21T11:09:54;101191.16;;;10.12;81.61
81509;BME280;70930;52.412;13.554;2024-02-21T11:12:23;101183.00;;;10.13;80.70
81509;BME280;70930;52.412;13.554;2024-02-21T11:14:48;101178.81;;;10.45;81.07
81509;BME280;70930;52.412;13.554;2024-02-21T11:17:18;101167.72;;;10.66;78.95
81509;BME280;70930;52.412;13.554;2024-02-21T11:19:44;101167.22;;;10.62;79.27
81509;BME280;70930;52.412;13.554;2024-02-21T11:22:17;101165.22;;;10.56;79.02
81509;BME280;70930;52.412;13.554;2024-02-21T11:24:43;101160.56;;;10.50;78.98
81509;BME280;70930;52.412;13.554;2024-02-21T11:27:09;101156.28;;;10.65;80.00
81509;BME280;70930;52.412;13.554;2024-02-21T11:29:54;101147.94;;;10.52;78.56
81509;BME280;70930;52.412;13.554;2024-02-21T11:32:20;101132.34;;;10.57;79.50
81509;BME280;70930;52.412;13.554;2024-02-21T11:35:03;101136.81;;;10.48;79.01
81509;BME280;70930;52.412;13.554;2024-02-21T11:37:31;101129.53;;;10.42;79.41
81509;BME280;70930;52.412;13.554;2024-02-21T11:40:03;101136.00;;;10.64;79.41
81509;BME280;70930;52.412;13.554;2024-02-21T11:42:29;101119.34;;;11.11;78.34
81509;BME280;70930;52.412;13.554;2024-02-21T11:44:56;101123.75;;;11.43;76.47
81509;BME280;70930;52.412;13.554;2024-02-21T11:47:24;101115.22;;;11.64;75.82
81509;BME280;70930;52.412;13.554;2024-02-21T11:49:50;101098.88;;;11.75;73.71
81509;BME280;70930;52.412;13.554;2024-02-21T11:52:20;101098.56;;;11.62;74.95
81509;BME280;70930;52.412;13.554;2024-02-21T11:54:47;101089.91;;;11.68;73.14
81509;BME280;70930;52.412;13.554;2024-02-21T11:57:13;101086.84;;;11.88;72.27
81509;BME280;70930;52.412;13.554;2024-02-21T11:59:39;101074.78;;;11.69;72.15
81509;BME280;70930;52.412;13.554;2024-02-21T12:02:05;101064.88;;;11.54;72.51
81509;BME280;70930;52.412;13.554;2024-02-21T12:04:31;101082.31;;;11.10;73.28
81509;BME280;70930;52.412;13.554;2024-02-21T12:06:57;101082.31;;;11.18;73.97
81509;BME280;70930;52.412;13.554;2024-02-21T12:09:24;101065.84;;;11.14;73.43
81509;BME280;70930;52.412;13.554;2024-02-21T12:12:03;101065.78;;;11.39;72.33
81509;BME280;70930;52.412;13.554;2024-02-21T12:14:30;101061.78;;;11.74;71.74
81509;BME280;70930;52.412;13.554;2024-02-21T12:16:56;101056.72;;;12.18;71.03
81509;BME280;70930;52.412;13.554;2024-02-21T12:19:22;101046.97;;;12.48;69.39
81509;BME280;70930;52.412;13.554;2024-02-21T12:21:48;101041.00;;;12.46;68.11
81509;BME280;70930;52.412;13.554;2024-02-21T12:24:22;101037.31;;;12.47;67.91
81509;BME280;70930;52.412;13.554;2024-02-21T12:26:49;101033.31;;;12.28;67.85
81509;BME280;70930;52.412;13.554;2024-02-21T12:29:14;101041.31;;;12.28;68.88
81509;BME280;70930;52.412;13.554;2024-02-21T12:31:40;101025.09;;;12.53;67.65
81509;BME280;70930;52.412;13.554;2024-02-21T12:34:05;101025.38;;;12.43;68.84
81509;BME280;70930;52.412;13.554;2024-02-21T12:36:32;101019.84;;;12.45;67.59
81509;BME280;70930;52.412;13.554;2024-02-21T12:39:00;101021.25;;;12.18;69.85
81509;BME280;70930;52.412;13.554;2024-02-21T12:41:28;101025.00;;;12.09;69.96
81509;BME280;70930;52.412;13.554;2024-02-21T12:43:55;101025.59;;;11.96;70.87
81509;BME280;70930;52.412;13.554;2024-02-21T12:46:21;101022.19;;;11.79;70.42
81509;BME280;70930;52.412;13.554;2024-02-21T12:48:47;101023.94;;;11.64;71.84